Disclaimer

Please do not use the information listed here in-flight or in-navigation, as they are not provided to us by the airports but are provided by volunteers, so they might be outdated.

Search


Regions


Airport information page

Radio informations:
HUATULCO TWR - 118.0 MHz

Airport informations:
Latitude: 15° 46' 31.14" N
Longitude: 096° 15' 45.26" W
Elevation: 464 feet - 141 meters
Operating hours: Remarks
Operating agency: Civil government, landing fees and diplomatic clearance may be required
Timezone: UTC-6(-5DT) - First Sunday in April to the last Saturday in October
Fuel: Unknown fuel type or whether there is any fuel.

Runway information:
07/25 - 8858 x 148 feet< - >2700 x 45 meters

Recent METARs:
MMBT 191541Z 00000KT 10SM SKC 30/23 A2998 RMK HZY
MMBT 191541Z 00000KT 10SM SKC 30/23 A2998 RMK HZY
MMBT 191645Z 00000KT 10SM SKC 31/22 A2997 RMK HZY ISOL CU N

Airport on the map: